Antioco — IYQR — position and weather

sailwx.info

Track history (hours):
 
Tides and Currents Weather Stations Pressure Air Temp Water Temp Dewpoint Dewpoint Depression Visibility Wind Speed Wind Dir Waves Ship Positions

Antioco

Last reported at 2018-Feb-23 16:03 UTC. Time now 2018-Feb-24 00:14 UTC.
Position N 38°13' E 015°15'.

Length 31 m; draft 4.1 m.

Type: Ship. MMSI: 247132200.

Date/timePositionNaut miles runAvg speedWind from/ knotsBaromVisibWave heightAir tempDewpointWater temp
2018-Feb-23 16:03N 38°13' E 015°15'0 0.0
2018-Feb-23 15:56N 38°13' E 015°15'0 0.0
2018-Feb-23 15:25N 38°13' E 015°15'0 0.0
2018-Feb-23 14:55N 38°13' E 015°15'0 0.0
2018-Feb-23 14:30N 38°13' E 015°15'0 0.0
2018-Feb-23 14:00N 38°13' E 015°15'0 0.0
2018-Feb-23 13:30N 38°13' E 015°15'0 0.0
2018-Feb-23 13:00N 38°13' E 015°15'0 0.0
2018-Feb-23 12:30N 38°13' E 015°15'0 0.0
2018-Feb-23 11:59N 38°13' E 015°15'0 0.0
2018-Feb-23 11:29N 38°13' E 015°15'0 0.0
2018-Feb-23 10:59N 38°13' E 015°15'0 0.0
2018-Feb-23 10:29N 38°13' E 015°15'0 0.0
2018-Feb-23 10:00N 38°13' E 015°15'0 0.3
2018-Feb-23 09:30N 38°13' E 015°15'0 0.4
2018-Feb-23 09:00N 38°13' E 015°14'4 7.2
2018-Feb-23 08:31N 38°16' E 015°16'1724.0
2018-Feb-23 07:49N 38°25' E 014°58'3 8.5
2018-Feb-23 07:27N 38°28' E 014°58'1610.3
2018-Feb-23 05:52N 38°38' E 015°14'1234.4
2018-Feb-23 05:30N 38°26' E 015°16'1325.4
2018-Feb-23 05:00N 38°13' E 015°14'0 0.2
2018-Feb-23 04:29N 38°13' E 015°15'0 0.0
2018-Feb-22 17:33N 38°13' E 015°15'0 0.0
2018-Feb-22 17:31N 38°13' E 015°15'612.7
2018-Feb-22 17:00N 38°19' E 015°12'1223.7
2018-Feb-22 16:30N 38°25' E 014°58'917.5
2018-Feb-22 15:58N 38°34' E 015°02'1122.5
2018-Feb-22 15:28N 38°43' E 015°09'6 6.3
2018-Feb-22 14:31N 38°38' E 015°05'012.1
2018-Feb-22 14:30N 38°38' E 015°05'1217.4
2018-Feb-22 13:50N 38°28' E 014°58'1132.0
2018-Feb-22 13:30N 38°22' E 015°09'11 1.7
2018-Feb-22 07:06N 38°28' E 014°57'410.1
2018-Feb-22 06:44N 38°25' E 014°59'834.1
2018-Feb-22 06:30N 38°21' E 015°08'918.8
2018-Feb-22 06:00N 38°13' E 015°15'0 0.0
2018-Feb-21 17:57N 38°13' E 015°15'0 0.2
2018-Feb-21 17:30N 38°13' E 015°15'714.9
2018-Feb-21 17:00N 38°20' E 015°12'1221.5
2018-Feb-21 16:27N 38°25' E 014°58'816.4
2018-Feb-21 15:59N 38°32' E 015°02'5 3.0
2018-Feb-21 14:21N 38°37' E 015°04'1017.7
2018-Feb-21 13:48N 38°28' E 014°59'1033.1
2018-Feb-21 13:30N 38°22' E 015°09'1019.9
2018-Feb-21 13:00N 38°13' E 015°14'0 0.3
2018-Feb-21 12:31N 38°13' E 015°15'0 0.2
2018-Feb-21 12:00N 38°13' E 015°15'3 5.6
2018-Feb-21 11:30N 38°15' E 015°17'1631.0
2018-Feb-21 10:59N 38°25' E 014°59'4 7.2
2018-Feb-21 10:29N 38°28' E 014°58'0 0.1
2018-Feb-21 07:20N 38°28' E 014°59'4 6.0
2018-Feb-21 06:45N 38°25' E 014°58'932.9
2018-Feb-21 06:30N 38°21' E 015°08'1019.4
2018-Feb-21 06:00N 38°13' E 015°14'0 0.2
2018-Feb-21 05:30N 38°13' E 015°15'0 0.0
2018-Feb-20 17:29N 38°13' E 015°15'714.0
2018-Feb-20 17:00N 38°19' E 015°13'1421.5
2018-Feb-20 16:21N 38°28' E 014°58'514.7
2018-Feb-20 16:01N 38°32' E 015°01'7 4.7
2018-Feb-20 14:32N 38°38' E 015°05'0 0.2
2018-Feb-20 14:27N 38°38' E 015°05'1219.0
2018-Feb-20 13:50N 38°28' E 014°57'1030.1
2018-Feb-20 13:30N 38°22' E 015°08'1021.0
2018-Feb-20 13:00N 38°13' E 015°14'0 0.0
2018-Feb-20 12:30N 38°13' E 015°14'0 0.4
2018-Feb-20 12:00N 38°13' E 015°15'3 5.1
2018-Feb-20 11:30N 38°15' E 015°16'1725.9
2018-Feb-20 10:51N 38°25' E 014°58'3 9.2
2018-Feb-20 10:29N 38°28' E 014°59'0 0.1
2018-Feb-20 07:20N 38°29' E 014°59'3 8.9
2018-Feb-20 07:00N 38°26' E 014°59'916.9
2018-Feb-20 06:29N 38°22' E 015°09'1021.6
2018-Feb-20 06:00N 38°13' E 015°15'0 0.1
2018-Feb-20 05:30N 38°13' E 015°14'0 0.0
2018-Feb-19 18:29N 38°13' E 015°14'0 0.2
2018-Feb-19 18:01N 38°13' E 015°15'1325.0
2018-Feb-19 17:30N 38°23' E 015°04'8 1.9
2018-Feb-19 13:27N 38°28' E 014°57'612.2
2018-Feb-19 13:00N 38°24' E 015°02'1531.5
2018-Feb-19 12:31N 38°14' E 015°16'2 3.4
2018-Feb-19 12:00N 38°13' E 015°14'0 0.0
2018-Feb-19 11:30N 38°13' E 015°14'0 0.1
2018-Feb-19 11:00N 38°13' E 015°14'0 0.1
2018-Feb-19 10:30N 38°13' E 015°14'0 0.0
2018-Feb-19 10:00N 38°13' E 015°14'0 0.4
2018-Feb-19 09:30N 38°13' E 015°15'0 0.0
2018-Feb-19 09:00N 38°13' E 015°15'0 0.1
2018-Feb-19 08:30N 38°13' E 015°15'1426.9
2018-Feb-19 08:00N 38°23' E 015°03'712.8
2018-Feb-19 07:28N 38°28' E 014°57'16 9.1
2018-Feb-19 05:42N 38°31' E 015°17'734.6
2018-Feb-19 05:30N 38°24' E 015°18'1223.5
2018-Feb-19 05:00N 38°13' E 015°14'0 0.0
2018-Feb-19 04:30N 38°13' E 015°14'0 0.0
2018-Feb-18 18:33N 38°13' E 015°14'0 0.5
2018-Feb-18 18:30N 38°13' E 015°15'0 0.5
2018-Feb-18 18:00N 38°13' E 015°15'1425.3
2018-Feb-18 17:27N 38°23' E 015°03'611.5
2018-Feb-18 16:53N 38°28' E 014°57'0 0.0
2018-Feb-18 13:33N 38°28' E 014°57'0 0.0
2018-Feb-18 13:30N 38°28' E 014°57'611.3
2018-Feb-18 12:59N 38°24' E 015°02'1530.9
2018-Feb-18 12:30N 38°14' E 015°16'2 3.3
2018-Feb-18 12:00N 38°13' E 015°14'0 0.0
2018-Feb-18 11:30N 38°13' E 015°14'0 0.0
2018-Feb-18 10:53N 38°13' E 015°14'0 0.0
2018-Feb-18 10:30N 38°13' E 015°14'0 0.0
2018-Feb-18 10:00N 38°13' E 015°14'0 0.6
2018-Feb-18 09:25N 38°13' E 015°15'0 0.2
2018-Feb-18 09:00N 38°13' E 015°15'2 4.4
2018-Feb-18 08:31N 38°15' E 015°16'1631.4
2018-Feb-18 07:59N 38°25' E 014°60'4 7.6
2018-Feb-18 07:29N 38°28' E 014°58'1221.2
2018-Feb-18 06:56N 38°39' E 015°05'1411.2
2018-Feb-18 05:41N 38°28' E 015°17'633.1
2018-Feb-18 05:30N 38°22' E 015°17'918.4
2018-Feb-18 05:00N 38°13' E 015°14'0 0.0
2018-Feb-18 04:30N 38°13' E 015°14'0 0.0
2018-Feb-17 18:35N 38°13' E 015°14'0 2.2
2018-Feb-17 18:30N 38°13' E 015°15'0 0.2
2018-Feb-17 18:00N 38°13' E 015°15'1425.8
2018-Feb-17 17:29N 38°23' E 015°03'713.0
2018-Feb-17 16:57N 38°28' E 014°57'1 0.3
2018-Feb-17 13:40N 38°28' E 014°59'1 6.4
2018-Feb-17 13:30N 38°28' E 014°57'611.7
2018-Feb-17 13:00N 38°24' E 015°02'1530.1
2018-Feb-17 12:30N 38°14' E 015°16'2 3.0
2018-Feb-17 12:01N 38°13' E 015°14'0 0.0
2018-Feb-17 11:30N 38°13' E 015°14'0 0.0
2018-Feb-17 11:01N 38°13' E 015°14'0 0.0
2018-Feb-17 10:30N 38°13' E 015°14'0 0.0
2018-Feb-17 10:00N 38°13' E 015°14'0 0.4
2018-Feb-17 09:30N 38°13' E 015°15'2 4.4
2018-Feb-17 09:00N 38°15' E 015°16'1631.2
2018-Feb-17 08:30N 38°25' E 014°60'4 7.8
2018-Feb-17 07:58N 38°28' E 014°57'610.3
2018-Feb-17 07:22N 38°34' E 014°55'1610.0
2018-Feb-17 05:44N 38°31' E 015°15'833.3
2018-Feb-17 05:30N 38°24' E 015°15'1121.7
2018-Feb-17 05:00N 38°13' E 015°14'0 0.0
2018-Feb-16 18:31N 38°13' E 015°14'0 0.0
2018-Feb-16 18:31N 38°13' E 015°14'0 0.9
2018-Feb-16 18:01N 38°13' E 015°15'1427.3
2018-Feb-16 17:30N 38°23' E 015°03'6 9.2
2018-Feb-16 16:50N 38°28' E 014°58'0 0.1
2018-Feb-16 14:21N 38°29' E 014°59'3 6.2
2018-Feb-16 13:52N 38°26' E 014°59'3 8.2
2018-Feb-16 13:30N 38°23' E 015°01'816.4
2018-Feb-16 13:00N 38°19' E 015°10'714.8
2018-Feb-16 12:30N 38°13' E 015°16'2 3.1
2018-Feb-16 12:00N 38°13' E 015°14'0 0.0
2018-Feb-16 11:31N 38°13' E 015°14'0 0.0
2018-Feb-16 11:01N 38°13' E 015°14'0 0.0
2018-Feb-16 10:29N 38°13' E 015°14'0 0.4
2018-Feb-16 10:00N 38°13' E 015°15'0 0.0
2018-Feb-16 09:30N 38°13' E 015°15'3 6.1
2018-Feb-16 09:01N 38°16' E 015°16'1428.8
2018-Feb-16 08:30N 38°24' E 015°01'510.1
2018-Feb-16 07:59N 38°28' E 014°57'6 9.9
2018-Feb-16 07:22N 38°35' E 014°58'15 9.7
2018-Feb-16 05:48N 38°34' E 015°17'1031.3
2018-Feb-16 05:30N 38°24' E 015°17'1122.8
2018-Feb-16 05:00N 38°13' E 015°14'0 0.7
2018-Feb-16 04:30N 38°13' E 015°15'0 0.0
2018-Feb-15 15:42N 38°13' E 015°15'0 0.0
2018-Feb-15 15:30N 38°13' E 015°15'0 0.0
2018-Feb-15 15:00N 38°13' E 015°15'0 0.0
2018-Feb-15 14:30N 38°13' E 015°15'0 0.0
2018-Feb-15 14:00N 38°13' E 015°15'0 0.0
2018-Feb-15 13:30N 38°13' E 015°15'0 0.0
2018-Feb-15 13:00N 38°13' E 015°15'0 0.0
2018-Feb-15 12:30N 38°13' E 015°15'0 0.0
2018-Feb-15 12:00N 38°13' E 015°15'0 0.0
2018-Feb-15 11:30N 38°13' E 015°15'0 0.0
2018-Feb-15 11:00N 38°13' E 015°15'0 0.0
2018-Feb-15 10:30N 38°13' E 015°15'0 0.0
2018-Feb-15 10:00N 38°13' E 015°15'0 0.0
2018-Feb-15 09:30N 38°13' E 015°15'0 0.0
2018-Feb-15 09:00N 38°13' E 015°15'0 0.0
2018-Feb-15 08:30N 38°13' E 015°15'0 0.0
2018-Feb-15 08:00N 38°13' E 015°15'0 0.0
2018-Feb-15 07:30N 38°13' E 015°15'0 0.0
2018-Feb-15 07:00N 38°13' E 015°15'0 0.0
2018-Feb-15 06:30N 38°13' E 015°15'0 0.0
2018-Feb-15 06:00N 38°13' E 015°15'0 0.0
2018-Feb-15 05:30N 38°13' E 015°15'0 0.0
2018-Feb-14 15:57N 38°13' E 015°15'0 0.0
2018-Feb-14 15:30N 38°13' E 015°15'0 0.0
2018-Feb-14 15:00N 38°13' E 015°15'0 0.0
2018-Feb-14 14:30N 38°13' E 015°15'0 0.0
2018-Feb-14 14:00N 38°13' E 015°15'0 0.0
2018-Feb-14 13:30N 38°13' E 015°15'0 0.0
2018-Feb-14 13:00N 38°13' E 015°15'0 0.0
2018-Feb-14 12:30N 38°13' E 015°15'0 0.4
2018-Feb-14 12:00N 38°13' E 015°15'510.4
2018-Feb-14 11:30N 38°18' E 015°13'1422.1
2018-Feb-14 10:53N 38°26' E 014°59'6 1.9
2018-Feb-14 07:42N 38°32' E 014°58'417.9
2018-Feb-14 07:30N 38°28' E 014°57'4 8.1
2018-Feb-14 07:00N 38°25' E 015°01'1325.7
2018-Feb-14 06:30N 38°19' E 015°15'612.1
2018-Feb-14 06:00N 38°13' E 015°14'0 0.7
2018-Feb-14 05:30N 38°13' E 015°15'  
Track history (hours):
 
Tides and Currents Weather Stations Pressure Air Temp Water Temp Dewpoint Dewpoint Depression Visibility Wind Speed Wind Dir Waves Ship Positions

Antioco

Last reported at 2018-Feb-23 16:03 UTC. Time now 2018-Feb-24 00:14 UTC.
Position N 38°13' E 015°15'.

Length 31 m; draft 4.1 m.

Type: Ship. MMSI: 247132200.

Date/timePositionNaut miles runAvg speedWind from/ knotsBaromVisibWave heightAir tempDewpointWater temp
2018-Feb-23 16:03N 38°13' E 015°15'0 0.0
2018-Feb-23 15:56N 38°13' E 015°15'0 0.0
2018-Feb-23 15:25N 38°13' E 015°15'0 0.0
2018-Feb-23 14:55N 38°13' E 015°15'0 0.0
2018-Feb-23 14:30N 38°13' E 015°15'0 0.0
2018-Feb-23 14:00N 38°13' E 015°15'0 0.0
2018-Feb-23 13:30N 38°13' E 015°15'0 0.0
2018-Feb-23 13:00N 38°13' E 015°15'0 0.0
2018-Feb-23 12:30N 38°13' E 015°15'0 0.0
2018-Feb-23 11:59N 38°13' E 015°15'0 0.0
2018-Feb-23 11:29N 38°13' E 015°15'0 0.0
2018-Feb-23 10:59N 38°13' E 015°15'0 0.0
2018-Feb-23 10:29N 38°13' E 015°15'0 0.0
2018-Feb-23 10:00N 38°13' E 015°15'0 0.3
2018-Feb-23 09:30N 38°13' E 015°15'0 0.4
2018-Feb-23 09:00N 38°13' E 015°14'4 7.2
2018-Feb-23 08:31N 38°16' E 015°16'1724.0
2018-Feb-23 07:49N 38°25' E 014°58'3 8.5
2018-Feb-23 07:27N 38°28' E 014°58'1610.3
2018-Feb-23 05:52N 38°38' E 015°14'1234.4
2018-Feb-23 05:30N 38°26' E 015°16'1325.4
2018-Feb-23 05:00N 38°13' E 015°14'0 0.2
2018-Feb-23 04:29N 38°13' E 015°15'0 0.0
2018-Feb-22 17:33N 38°13' E 015°15'0 0.0
2018-Feb-22 17:31N 38°13' E 015°15'612.7
2018-Feb-22 17:00N 38°19' E 015°12'1223.7
2018-Feb-22 16:30N 38°25' E 014°58'917.5
2018-Feb-22 15:58N 38°34' E 015°02'1122.5
2018-Feb-22 15:28N 38°43' E 015°09'6 6.3
2018-Feb-22 14:31N 38°38' E 015°05'012.1
2018-Feb-22 14:30N 38°38' E 015°05'1217.4
2018-Feb-22 13:50N 38°28' E 014°58'1132.0
2018-Feb-22 13:30N 38°22' E 015°09'11 1.7
2018-Feb-22 07:06N 38°28' E 014°57'410.1
2018-Feb-22 06:44N 38°25' E 014°59'834.1
2018-Feb-22 06:30N 38°21' E 015°08'918.8
2018-Feb-22 06:00N 38°13' E 015°15'0 0.0
2018-Feb-21 17:57N 38°13' E 015°15'0 0.2
2018-Feb-21 17:30N 38°13' E 015°15'714.9
2018-Feb-21 17:00N 38°20' E 015°12'1221.5
2018-Feb-21 16:27N 38°25' E 014°58'816.4
2018-Feb-21 15:59N 38°32' E 015°02'5 3.0
2018-Feb-21 14:21N 38°37' E 015°04'1017.7
2018-Feb-21 13:48N 38°28' E 014°59'1033.1
2018-Feb-21 13:30N 38°22' E 015°09'1019.9
2018-Feb-21 13:00N 38°13' E 015°14'0 0.3
2018-Feb-21 12:31N 38°13' E 015°15'0 0.2
2018-Feb-21 12:00N 38°13' E 015°15'3 5.6
2018-Feb-21 11:30N 38°15' E 015°17'1631.0
2018-Feb-21 10:59N 38°25' E 014°59'4 7.2
2018-Feb-21 10:29N 38°28' E 014°58'0 0.1
2018-Feb-21 07:20N 38°28' E 014°59'4 6.0
2018-Feb-21 06:45N 38°25' E 014°58'932.9
2018-Feb-21 06:30N 38°21' E 015°08'1019.4
2018-Feb-21 06:00N 38°13' E 015°14'0 0.2
2018-Feb-21 05:30N 38°13' E 015°15'0 0.0
2018-Feb-20 17:29N 38°13' E 015°15'714.0
2018-Feb-20 17:00N 38°19' E 015°13'1421.5
2018-Feb-20 16:21N 38°28' E 014°58'514.7
2018-Feb-20 16:01N 38°32' E 015°01'7 4.7
2018-Feb-20 14:32N 38°38' E 015°05'0 0.2
2018-Feb-20 14:27N 38°38' E 015°05'1219.0
2018-Feb-20 13:50N 38°28' E 014°57'1030.1
2018-Feb-20 13:30N 38°22' E 015°08'1021.0
2018-Feb-20 13:00N 38°13' E 015°14'0 0.0
2018-Feb-20 12:30N 38°13' E 015°14'0 0.4
2018-Feb-20 12:00N 38°13' E 015°15'3 5.1
2018-Feb-20 11:30N 38°15' E 015°16'1725.9
2018-Feb-20 10:51N 38°25' E 014°58'3 9.2
2018-Feb-20 10:29N 38°28' E 014°59'0 0.1
2018-Feb-20 07:20N 38°29' E 014°59'3 8.9
2018-Feb-20 07:00N 38°26' E 014°59'916.9
2018-Feb-20 06:29N 38°22' E 015°09'1021.6
2018-Feb-20 06:00N 38°13' E 015°15'0 0.1
2018-Feb-20 05:30N 38°13' E 015°14'0 0.0
2018-Feb-19 18:29N 38°13' E 015°14'0 0.2
2018-Feb-19 18:01N 38°13' E 015°15'1325.0
2018-Feb-19 17:30N 38°23' E 015°04'8 1.9
2018-Feb-19 13:27N 38°28' E 014°57'612.2
2018-Feb-19 13:00N 38°24' E 015°02'1531.5
2018-Feb-19 12:31N 38°14' E 015°16'2 3.4
2018-Feb-19 12:00N 38°13' E 015°14'0 0.0
2018-Feb-19 11:30N 38°13' E 015°14'0 0.1
2018-Feb-19 11:00N 38°13' E 015°14'0 0.1
2018-Feb-19 10:30N 38°13' E 015°14'0 0.0
2018-Feb-19 10:00N 38°13' E 015°14'0 0.4
2018-Feb-19 09:30N 38°13' E 015°15'0 0.0
2018-Feb-19 09:00N 38°13' E 015°15'0 0.1
2018-Feb-19 08:30N 38°13' E 015°15'1426.9
2018-Feb-19 08:00N 38°23' E 015°03'712.8
2018-Feb-19 07:28N 38°28' E 014°57'16 9.1
2018-Feb-19 05:42N 38°31' E 015°17'734.6
2018-Feb-19 05:30N 38°24' E 015°18'1223.5
2018-Feb-19 05:00N 38°13' E 015°14'0 0.0
2018-Feb-19 04:30N 38°13' E 015°14'0 0.0
2018-Feb-18 18:33N 38°13' E 015°14'0 0.5
2018-Feb-18 18:30N 38°13' E 015°15'0 0.5
2018-Feb-18 18:00N 38°13' E 015°15'1425.3
2018-Feb-18 17:27N 38°23' E 015°03'611.5
2018-Feb-18 16:53N 38°28' E 014°57'0 0.0
2018-Feb-18 13:33N 38°28' E 014°57'0 0.0
2018-Feb-18 13:30N 38°28' E 014°57'611.3
2018-Feb-18 12:59N 38°24' E 015°02'1530.9
2018-Feb-18 12:30N 38°14' E 015°16'2 3.3
2018-Feb-18 12:00N 38°13' E 015°14'0 0.0
2018-Feb-18 11:30N 38°13' E 015°14'0 0.0
2018-Feb-18 10:53N 38°13' E 015°14'0 0.0
2018-Feb-18 10:30N 38°13' E 015°14'0 0.0
2018-Feb-18 10:00N 38°13' E 015°14'0 0.6
2018-Feb-18 09:25N 38°13' E 015°15'0 0.2
2018-Feb-18 09:00N 38°13' E 015°15'2 4.4
2018-Feb-18 08:31N 38°15' E 015°16'1631.4
2018-Feb-18 07:59N 38°25' E 014°60'4 7.6
2018-Feb-18 07:29N 38°28' E 014°58'1221.2
2018-Feb-18 06:56N 38°39' E 015°05'1411.2
2018-Feb-18 05:41N 38°28' E 015°17'633.1
2018-Feb-18 05:30N 38°22' E 015°17'918.4
2018-Feb-18 05:00N 38°13' E 015°14'0 0.0
2018-Feb-18 04:30N 38°13' E 015°14'0 0.0
2018-Feb-17 18:35N 38°13' E 015°14'0 2.2
2018-Feb-17 18:30N 38°13' E 015°15'0 0.2
2018-Feb-17 18:00N 38°13' E 015°15'1425.8
2018-Feb-17 17:29N 38°23' E 015°03'713.0
2018-Feb-17 16:57N 38°28' E 014°57'1 0.3
2018-Feb-17 13:40N 38°28' E 014°59'1 6.4
2018-Feb-17 13:30N 38°28' E 014°57'611.7
2018-Feb-17 13:00N 38°24' E 015°02'1530.1
2018-Feb-17 12:30N 38°14' E 015°16'2 3.0
2018-Feb-17 12:01N 38°13' E 015°14'0 0.0
2018-Feb-17 11:30N 38°13' E 015°14'0 0.0
2018-Feb-17 11:01N 38°13' E 015°14'0 0.0
2018-Feb-17 10:30N 38°13' E 015°14'0 0.0
2018-Feb-17 10:00N 38°13' E 015°14'0 0.4
2018-Feb-17 09:30N 38°13' E 015°15'2 4.4
2018-Feb-17 09:00N 38°15' E 015°16'1631.2
2018-Feb-17 08:30N 38°25' E 014°60'4 7.8
2018-Feb-17 07:58N 38°28' E 014°57'610.3
2018-Feb-17 07:22N 38°34' E 014°55'1610.0
2018-Feb-17 05:44N 38°31' E 015°15'833.3
2018-Feb-17 05:30N 38°24' E 015°15'1121.7
2018-Feb-17 05:00N 38°13' E 015°14'0 0.0
2018-Feb-16 18:31N 38°13' E 015°14'0 0.0
2018-Feb-16 18:31N 38°13' E 015°14'0 0.9
2018-Feb-16 18:01N 38°13' E 015°15'1427.3
2018-Feb-16 17:30N 38°23' E 015°03'6 9.2
2018-Feb-16 16:50N 38°28' E 014°58'0 0.1
2018-Feb-16 14:21N 38°29' E 014°59'3 6.2
2018-Feb-16 13:52N 38°26' E 014°59'3 8.2
2018-Feb-16 13:30N 38°23' E 015°01'816.4
2018-Feb-16 13:00N 38°19' E 015°10'714.8
2018-Feb-16 12:30N 38°13' E 015°16'2 3.1
2018-Feb-16 12:00N 38°13' E 015°14'0 0.0
2018-Feb-16 11:31N 38°13' E 015°14'0 0.0
2018-Feb-16 11:01N 38°13' E 015°14'0 0.0
2018-Feb-16 10:29N 38°13' E 015°14'0 0.4
2018-Feb-16 10:00N 38°13' E 015°15'0 0.0
2018-Feb-16 09:30N 38°13' E 015°15'3 6.1
2018-Feb-16 09:01N 38°16' E 015°16'1428.8
2018-Feb-16 08:30N 38°24' E 015°01'510.1
2018-Feb-16 07:59N 38°28' E 014°57'6 9.9
2018-Feb-16 07:22N 38°35' E 014°58'15 9.7
2018-Feb-16 05:48N 38°34' E 015°17'1031.3
2018-Feb-16 05:30N 38°24' E 015°17'1122.8
2018-Feb-16 05:00N 38°13' E 015°14'0 0.7
2018-Feb-16 04:30N 38°13' E 015°15'0 0.0
2018-Feb-15 15:42N 38°13' E 015°15'0 0.0
2018-Feb-15 15:30N 38°13' E 015°15'0 0.0
2018-Feb-15 15:00N 38°13' E 015°15'0 0.0
2018-Feb-15 14:30N 38°13' E 015°15'0 0.0
2018-Feb-15 14:00N 38°13' E 015°15'0 0.0
2018-Feb-15 13:30N 38°13' E 015°15'0 0.0
2018-Feb-15 13:00N 38°13' E 015°15'0 0.0
2018-Feb-15 12:30N 38°13' E 015°15'0 0.0
2018-Feb-15 12:00N 38°13' E 015°15'0 0.0
2018-Feb-15 11:30N 38°13' E 015°15'0 0.0
2018-Feb-15 11:00N 38°13' E 015°15'0 0.0
2018-Feb-15 10:30N 38°13' E 015°15'0 0.0
2018-Feb-15 10:00N 38°13' E 015°15'0 0.0
2018-Feb-15 09:30N 38°13' E 015°15'0 0.0
2018-Feb-15 09:00N 38°13' E 015°15'0 0.0
2018-Feb-15 08:30N 38°13' E 015°15'0 0.0
2018-Feb-15 08:00N 38°13' E 015°15'0 0.0
2018-Feb-15 07:30N 38°13' E 015°15'0 0.0
2018-Feb-15 07:00N 38°13' E 015°15'0 0.0
2018-Feb-15 06:30N 38°13' E 015°15'0 0.0
2018-Feb-15 06:00N 38°13' E 015°15'0 0.0
2018-Feb-15 05:30N 38°13' E 015°15'0 0.0
2018-Feb-14 15:57N 38°13' E 015°15'0 0.0
2018-Feb-14 15:30N 38°13' E 015°15'0 0.0
2018-Feb-14 15:00N 38°13' E 015°15'0 0.0
2018-Feb-14 14:30N 38°13' E 015°15'0 0.0
2018-Feb-14 14:00N 38°13' E 015°15'0 0.0
2018-Feb-14 13:30N 38°13' E 015°15'0 0.0
2018-Feb-14 13:00N 38°13' E 015°15'0 0.0
2018-Feb-14 12:30N 38°13' E 015°15'0 0.4
2018-Feb-14 12:00N 38°13' E 015°15'510.4
2018-Feb-14 11:30N 38°18' E 015°13'1422.1
2018-Feb-14 10:53N 38°26' E 014°59'6 1.9
2018-Feb-14 07:42N 38°32' E 014°58'417.9
2018-Feb-14 07:30N 38°28' E 014°57'4 8.1
2018-Feb-14 07:00N 38°25' E 015°01'1325.7
2018-Feb-14 06:30N 38°19' E 015°15'612.1
2018-Feb-14 06:00N 38°13' E 015°14'0 0.7
2018-Feb-14 05:30N 38°13' E 015°15'  

Dump ship's entire track history